This is the latest recevied weather packets stored in our database for station/object N7TUG. If no packets are shown the sender has not sent any weather packets the latest 10 day(s).
| Time | Temp. | Humidity | Pressure | Rain* | Wind** | Luminosity | Snow |
|---|---|---|---|---|---|---|---|
| 1778013915 | 16.11° C | 76% | 1016 hPa | 0 mm | - | 414 W/m² | - |
| 1778013315 | 16.11° C | 76% | 1016.1 hPa | 0 mm | - | 393 W/m² | - |
| 1778012715 | 16.67° C | 77% | 1016.1 hPa | 0 mm | - | 395 W/m² | - |
| 1778009715 | 15.56° C | 78% | 1016 hPa | 0 mm | - | 302 W/m² | - |
| 1778004315 | 15° C | 80% | 1016.1 hPa | 0 mm | - | 248 W/m² | - |
| 1778003115 | 14.44° C | 81% | 1016 hPa | 0 mm | - | 223 W/m² | - |
| 1778002515 | 14.44° C | 81% | 1016 hPa | 0 mm | - | 198 W/m² | - |
| 1778001915 | 14.44° C | 81% | 1016 hPa | 0 mm | - | 190 W/m² | - |
| 1777998315 | 14.44° C | 81% | 1015.7 hPa | 0 mm | - | 139 W/m² | - |
| 1777997115 | 14.44° C | 81% | 1015.7 hPa | 0 mm | - | 116 W/m² | - |
| 1777994116 | 13.89° C | 83% | 1015.3 hPa | 0 mm | - | 81 W/m² | - |
| 1777992315 | 13.89° C | 83% | 1015.1 hPa | 0 mm | - | 58 W/m² | - |
| 1777970115 | 13.33° C | 87% | 1012.3 hPa | 0 mm | - | 18 W/m² | - |
| 1777943715 | 25.56° C | 57% | 1008.4 hPa | 0 mm | - | 226 W/m² | - |
| 1777942515 | 26.11° C | 55% | 1008.4 hPa | 0 mm | - | 294 W/m² | - |
| 1777940715 | 26.11° C | 52% | 1008.5 hPa | 0 mm | - | 383 W/m² | - |
| 1777935935 | 26.11° C | 51% | 1008.8 hPa | 0 mm | - | 624 W/m² | - |
| 1777934736 | 25.56° C | 51% | 1009.1 hPa | 0 mm | - | 674 W/m² | - |
| 1777932315 | 26.11° C | 53% | 1009.5 hPa | 0 mm | - | 758 W/m² | - |
| 1777928715 | 23.89° C | 59% | 1009.9 hPa | 0 mm | - | 833 W/m² | - |
| 1777925115 | 23.33° C | 60% | 1010.1 hPa | 0 mm | - | 885 W/m² | - |
| 1777923915 | 22.78° C | 60% | 1010.1 hPa | 0 mm | - | 813 W/m² | - |
| 1777909516 | 18.33° C | 68% | 1010.1 hPa | 0 mm | - | 360 W/m² | - |
| 1777907716 | 16.67° C | 73% | 1010 hPa | 0 mm | - | 277 W/m² | - |
| 1777905315 | 15.56° C | 73% | 1009.8 hPa | 0 mm | - | 162 W/m² | - |
* Rain latest hour (hover to see other rain measurements)
** Current wind speed in m/s (hover to see current wind gust speed)